sensor_id;sensor_type;location;lat;lon;timestamp;P1;durP1;ratioP1;P2;durP2;ratioP2
3036;SDS011;1528;52.550;13.408;2022-10-03T00:00:00;8.10;;;7.30;;
3036;SDS011;1528;52.550;13.408;2022-10-03T00:06:13;12.40;;;8.20;;
3036;SDS011;1528;52.550;13.408;2022-10-03T00:09:13;12.20;;;7.17;;
3036;SDS011;1528;52.550;13.408;2022-10-03T00:12:30;9.70;;;7.80;;
3036;SDS011;1528;52.550;13.408;2022-10-03T00:15:24;12.00;;;7.63;;
3036;SDS011;1528;52.550;13.408;2022-10-03T00:18:15;13.23;;;7.60;;
3036;SDS011;1528;52.550;13.408;2022-10-03T00:21:12;13.37;;;7.87;;
3036;SDS011;1528;52.550;13.408;2022-10-03T00:24:12;11.97;;;7.60;;
3036;SDS011;1528;52.550;13.408;2022-10-03T00:27:07;17.10;;;7.93;;
3036;SDS011;1528;52.550;13.408;2022-10-03T00:30:04;9.10;;;8.10;;
3036;SDS011;1528;52.550;13.408;2022-10-03T00:33:02;14.67;;;7.33;;
3036;SDS011;1528;52.550;13.408;2022-10-03T00:35:59;11.53;;;6.70;;
3036;SDS011;1528;52.550;13.408;2022-10-03T00:42:13;9.40;;;7.80;;
3036;SDS011;1528;52.550;13.408;2022-10-03T00:49:08;11.40;;;8.10;;
3036;SDS011;1528;52.550;13.408;2022-10-03T00:52:24;16.03;;;8.67;;
3036;SDS011;1528;52.550;13.408;2022-10-03T00:55:22;14.30;;;8.00;;
3036;SDS011;1528;52.550;13.408;2022-10-03T00:58:22;15.67;;;8.30;;
3036;SDS011;1528;52.550;13.408;2022-10-03T01:01:32;9.47;;;8.00;;
3036;SDS011;1528;52.550;13.408;2022-10-03T01:04:26;12.33;;;8.13;;
3036;SDS011;1528;52.550;13.408;2022-10-03T01:07:28;11.13;;;7.70;;
3036;SDS011;1528;52.550;13.408;2022-10-03T01:10:28;12.20;;;8.60;;
3036;SDS011;1528;52.550;13.408;2022-10-03T01:13:28;14.73;;;9.07;;
3036;SDS011;1528;52.550;13.408;2022-10-03T01:16:22;11.10;;;8.60;;
3036;SDS011;1528;52.550;13.408;2022-10-03T01:19:30;11.70;;;8.47;;
3036;SDS011;1528;52.550;13.408;2022-10-03T01:22:35;12.93;;;8.60;;
3036;SDS011;1528;52.550;13.408;2022-10-03T01:25:50;14.43;;;8.20;;
3036;SDS011;1528;52.550;13.408;2022-10-03T01:28:44;8.20;;;7.23;;
3036;SDS011;1528;52.550;13.408;2022-10-03T01:31:52;11.80;;;8.50;;
3036;SDS011;1528;52.550;13.408;2022-10-03T01:34:45;8.63;;;7.87;;
3036;SDS011;1528;52.550;13.408;2022-10-03T01:37:39;9.37;;;8.30;;
3036;SDS011;1528;52.550;13.408;2022-10-03T01:40:33;13.97;;;7.93;;
3036;SDS011;1528;52.550;13.408;2022-10-03T01:43:22;13.93;;;7.50;;
3036;SDS011;1528;52.550;13.408;2022-10-03T01:46:20;11.27;;;7.30;;
3036;SDS011;1528;52.550;13.408;2022-10-03T01:49:14;8.90;;;8.00;;
3036;SDS011;1528;52.550;13.408;2022-10-03T01:52:08;11.20;;;7.90;;
3036;SDS011;1528;52.550;13.408;2022-10-03T01:55:02;8.73;;;7.07;;
3036;SDS011;1528;52.550;13.408;2022-10-03T01:57:54;12.50;;;7.17;;
3036;SDS011;1528;52.550;13.408;2022-10-03T02:00:46;11.37;;;8.10;;
3036;SDS011;1528;52.550;13.408;2022-10-03T02:03:44;8.67;;;7.87;;
3036;SDS011;1528;52.550;13.408;2022-10-03T02:06:37;12.20;;;7.07;;
3036;SDS011;1528;52.550;13.408;2022-10-03T02:09:29;12.20;;;7.00;;
3036;SDS011;1528;52.550;13.408;2022-10-03T02:12:23;7.70;;;6.67;;
3036;SDS011;1528;52.550;13.408;2022-10-03T02:15:15;11.40;;;7.40;;
3036;SDS011;1528;52.550;13.408;2022-10-03T02:18:08;10.60;;;7.00;;
3036;SDS011;1528;52.550;13.408;2022-10-03T02:21:04;14.30;;;7.37;;
3036;SDS011;1528;52.550;13.408;2022-10-03T02:24:07;11.33;;;7.13;;
3036;SDS011;1528;52.550;13.408;2022-10-03T02:30:21;11.87;;;7.13;;
3036;SDS011;1528;52.550;13.408;2022-10-03T02:36:46;9.50;;;8.60;;
3036;SDS011;1528;52.550;13.408;2022-10-03T02:40:13;9.93;;;7.93;;
3036;SDS011;1528;52.550;13.408;2022-10-03T02:47:07;8.90;;;7.10;;
3036;SDS011;1528;52.550;13.408;2022-10-03T02:57:31;9.20;;;7.03;;
3036;SDS011;1528;52.550;13.408;2022-10-03T03:00:46;8.73;;;7.40;;
3036;SDS011;1528;52.550;13.408;2022-10-03T03:04:05;9.63;;;6.63;;
3036;SDS011;1528;52.550;13.408;2022-10-03T03:07:15;8.30;;;7.50;;
3036;SDS011;1528;52.550;13.408;2022-10-03T03:10:26;12.57;;;8.23;;
3036;SDS011;1528;52.550;13.408;2022-10-03T03:16:51;12.50;;;7.83;;
3036;SDS011;1528;52.550;13.408;2022-10-03T03:19:50;7.90;;;7.10;;
3036;SDS011;1528;52.550;13.408;2022-10-03T03:22:48;13.30;;;8.50;;
3036;SDS011;1528;52.550;13.408;2022-10-03T03:25:54;9.43;;;7.97;;
3036;SDS011;1528;52.550;13.408;2022-10-03T03:28:56;12.77;;;8.50;;
3036;SDS011;1528;52.550;13.408;2022-10-03T03:31:51;11.77;;;7.87;;
3036;SDS011;1528;52.550;13.408;2022-10-03T03:34:48;11.03;;;7.37;;
3036;SDS011;1528;52.550;13.408;2022-10-03T03:37:45;10.53;;;8.03;;
3036;SDS011;1528;52.550;13.408;2022-10-03T03:40:43;8.33;;;7.00;;
3036;SDS011;1528;52.550;13.408;2022-10-03T03:50:11;13.47;;;8.10;;
3036;SDS011;1528;52.550;13.408;2022-10-03T03:53:13;9.97;;;8.07;;
3036;SDS011;1528;52.550;13.408;2022-10-03T03:56:12;10.30;;;9.30;;
3036;SDS011;1528;52.550;13.408;2022-10-03T03:59:37;11.93;;;8.23;;
3036;SDS011;1528;52.550;13.408;2022-10-03T04:02:40;10.87;;;9.10;;
3036;SDS011;1528;52.550;13.408;2022-10-03T04:05:39;9.80;;;8.37;;
3036;SDS011;1528;52.550;13.408;2022-10-03T04:08:39;8.03;;;7.20;;
3036;SDS011;1528;52.550;13.408;2022-10-03T04:11:49;8.17;;;7.37;;
3036;SDS011;1528;52.550;13.408;2022-10-03T04:14:54;11.10;;;7.90;;
3036;SDS011;1528;52.550;13.408;2022-10-03T04:17:58;16.30;;;8.27;;
3036;SDS011;1528;52.550;13.408;2022-10-03T04:21:29;11.33;;;8.27;;
3036;SDS011;1528;52.550;13.408;2022-10-03T04:24:28;9.00;;;8.17;;
3036;SDS011;1528;52.550;13.408;2022-10-03T04:27:35;10.50;;;7.37;;
3036;SDS011;1528;52.550;13.408;2022-10-03T04:30:42;8.90;;;7.47;;
3036;SDS011;1528;52.550;13.408;2022-10-03T04:33:39;10.60;;;8.17;;
3036;SDS011;1528;52.550;13.408;2022-10-03T04:36:50;8.17;;;7.47;;
3036;SDS011;1528;52.550;13.408;2022-10-03T04:39:44;9.80;;;8.77;;
3036;SDS011;1528;52.550;13.408;2022-10-03T04:42:37;13.00;;;7.63;;
3036;SDS011;1528;52.550;13.408;2022-10-03T04:45:38;8.10;;;7.30;;
3036;SDS011;1528;52.550;13.408;2022-10-03T04:48:43;16.47;;;8.10;;
3036;SDS011;1528;52.550;13.408;2022-10-03T04:51:40;9.03;;;8.13;;
3036;SDS011;1528;52.550;13.408;2022-10-03T04:54:34;9.50;;;7.57;;
3036;SDS011;1528;52.550;13.408;2022-10-03T04:57:34;11.23;;;7.80;;
3036;SDS011;1528;52.550;13.408;2022-10-03T05:00:27;9.17;;;8.23;;
3036;SDS011;1528;52.550;13.408;2022-10-03T05:03:18;15.70;;;8.53;;
3036;SDS011;1528;52.550;13.408;2022-10-03T05:06:19;8.30;;;7.50;;
3036;SDS011;1528;52.550;13.408;2022-10-03T05:09:20;12.10;;;9.90;;
3036;SDS011;1528;52.550;13.408;2022-10-03T05:12:13;12.27;;;9.57;;
3036;SDS011;1528;52.550;13.408;2022-10-03T05:15:04;9.70;;;7.63;;
3036;SDS011;1528;52.550;13.408;2022-10-03T05:18:03;9.97;;;7.43;;
3036;SDS011;1528;52.550;13.408;2022-10-03T05:20:58;8.10;;;7.30;;
3036;SDS011;1528;52.550;13.408;2022-10-03T05:23:51;9.17;;;7.83;;
3036;SDS011;1528;52.550;13.408;2022-10-03T05:26:47;8.53;;;7.20;;
3036;SDS011;1528;52.550;13.408;2022-10-03T05:29:40;10.10;;;8.60;;
3036;SDS011;1528;52.550;13.408;2022-10-03T05:32:37;11.03;;;8.80;;
3036;SDS011;1528;52.550;13.408;2022-10-03T05:35:28;8.37;;;7.57;;
3036;SDS011;1528;52.550;13.408;2022-10-03T05:38:25;10.60;;;8.10;;
3036;SDS011;1528;52.550;13.408;2022-10-03T05:41:24;11.50;;;8.60;;
3036;SDS011;1528;52.550;13.408;2022-10-03T05:44:14;10.27;;;7.43;;
3036;SDS011;1528;52.550;13.408;2022-10-03T05:47:03;10.93;;;7.80;;
3036;SDS011;1528;52.550;13.408;2022-10-03T05:53:35;10.27;;;7.93;;
3036;SDS011;1528;52.550;13.408;2022-10-03T05:56:50;10.00;;;7.13;;
3036;SDS011;1528;52.550;13.408;2022-10-03T05:59:54;11.70;;;7.60;;
3036;SDS011;1528;52.550;13.408;2022-10-03T06:06:23;12.77;;;7.97;;
3036;SDS011;1528;52.550;13.408;2022-10-03T06:12:33;12.10;;;7.27;;
3036;SDS011;1528;52.550;13.408;2022-10-03T06:15:38;10.23;;;8.90;;
3036;SDS011;1528;52.550;13.408;2022-10-03T06:18:43;11.13;;;7.50;;
3036;SDS011;1528;52.550;13.408;2022-10-03T06:22:04;13.57;;;7.53;;
3036;SDS011;1528;52.550;13.408;2022-10-03T06:28:52;8.37;;;7.03;;
3036;SDS011;1528;52.550;13.408;2022-10-03T06:32:07;14.83;;;7.77;;
3036;SDS011;1528;52.550;13.408;2022-10-03T06:35:27;8.33;;;7.53;;
3036;SDS011;1528;52.550;13.408;2022-10-03T06:42:07;12.20;;;8.17;;
3036;SDS011;1528;52.550;13.408;2022-10-03T06:45:18;16.70;;;7.67;;
3036;SDS011;1528;52.550;13.408;2022-10-03T06:48:26;10.53;;;7.43;;
3036;SDS011;1528;52.550;13.408;2022-10-03T06:51:30;8.83;;;8.07;;
3036;SDS011;1528;52.550;13.408;2022-10-03T06:54:51;14.27;;;9.53;;
3036;SDS011;1528;52.550;13.408;2022-10-03T07:01:27;9.57;;;8.57;;
3036;SDS011;1528;52.550;13.408;2022-10-03T07:04:38;10.23;;;9.00;;
3036;SDS011;1528;52.550;13.408;2022-10-03T07:11:04;12.73;;;8.23;;
3036;SDS011;1528;52.550;13.408;2022-10-03T07:14:13;11.63;;;8.40;;
3036;SDS011;1528;52.550;13.408;2022-10-03T07:17:25;10.43;;;9.23;;
3036;SDS011;1528;52.550;13.408;2022-10-03T07:20:29;8.97;;;8.07;;
3036;SDS011;1528;52.550;13.408;2022-10-03T07:23:39;12.60;;;8.33;;
3036;SDS011;1528;52.550;13.408;2022-10-03T07:26:46;9.17;;;8.27;;
3036;SDS011;1528;52.550;13.408;2022-10-03T07:33:18;12.43;;;8.30;;
3036;SDS011;1528;52.550;13.408;2022-10-03T07:36:29;10.03;;;9.10;;
3036;SDS011;1528;52.550;13.408;2022-10-03T07:42:51;12.77;;;7.23;;
3036;SDS011;1528;52.550;13.408;2022-10-03T07:46:05;9.53;;;8.40;;
3036;SDS011;1528;52.550;13.408;2022-10-03T07:49:14;9.77;;;7.40;;
3036;SDS011;1528;52.550;13.408;2022-10-03T07:52:26;9.60;;;7.43;;
3036;SDS011;1528;52.550;13.408;2022-10-03T07:55:31;11.63;;;7.70;;
3036;SDS011;1528;52.550;13.408;2022-10-03T07:58:44;15.07;;;7.43;;
3036;SDS011;1528;52.550;13.408;2022-10-03T08:01:47;16.90;;;8.50;;
3036;SDS011;1528;52.550;13.408;2022-10-03T08:08:06;12.57;;;8.10;;
3036;SDS011;1528;52.550;13.408;2022-10-03T08:11:12;10.40;;;7.47;;
3036;SDS011;1528;52.550;13.408;2022-10-03T08:14:16;9.53;;;8.00;;
3036;SDS011;1528;52.550;13.408;2022-10-03T08:20:34;11.70;;;8.37;;
3036;SDS011;1528;52.550;13.408;2022-10-03T08:26:53;9.50;;;8.43;;
3036;SDS011;1528;52.550;13.408;2022-10-03T08:30:01;9.43;;;7.87;;
3036;SDS011;1528;52.550;13.408;2022-10-03T08:33:19;9.40;;;8.50;;
3036;SDS011;1528;52.550;13.408;2022-10-03T08:36:30;11.27;;;9.93;;
3036;SDS011;1528;52.550;13.408;2022-10-03T08:39:53;11.90;;;9.90;;
3036;SDS011;1528;52.550;13.408;2022-10-03T08:43:03;9.67;;;8.70;;
3036;SDS011;1528;52.550;13.408;2022-10-03T08:46:10;12.37;;;11.00;;
3036;SDS011;1528;52.550;13.408;2022-10-03T08:49:12;12.20;;;10.93;;
3036;SDS011;1528;52.550;13.408;2022-10-03T08:52:23;10.93;;;9.87;;
3036;SDS011;1528;52.550;13.408;2022-10-03T08:55:25;11.37;;;10.23;;
3036;SDS011;1528;52.550;13.408;2022-10-03T08:58:42;11.13;;;9.93;;
3036;SDS011;1528;52.550;13.408;2022-10-03T09:08:46;11.53;;;9.00;;
3036;SDS011;1528;52.550;13.408;2022-10-03T09:12:07;10.33;;;8.80;;
3036;SDS011;1528;52.550;13.408;2022-10-03T09:15:06;10.13;;;9.20;;
3036;SDS011;1528;52.550;13.408;2022-10-03T09:18:08;12.00;;;10.57;;
3036;SDS011;1528;52.550;13.408;2022-10-03T09:21:24;12.50;;;11.17;;
3036;SDS011;1528;52.550;13.408;2022-10-03T09:24:46;12.20;;;10.97;;
3036;SDS011;1528;52.550;13.408;2022-10-03T09:31:22;9.20;;;8.17;;
3036;SDS011;1528;52.550;13.408;2022-10-03T09:34:33;9.27;;;8.37;;
3036;SDS011;1528;52.550;13.408;2022-10-03T09:37:56;10.40;;;9.30;;
3036;SDS011;1528;52.550;13.408;2022-10-03T09:41:21;13.97;;;9.73;;
3036;SDS011;1528;52.550;13.408;2022-10-03T09:44:19;10.47;;;9.40;;
3036;SDS011;1528;52.550;13.408;2022-10-03T09:47:46;10.00;;;9.10;;
3036;SDS011;1528;52.550;13.408;2022-10-03T09:51:15;12.27;;;9.10;;
3036;SDS011;1528;52.550;13.408;2022-10-03T09:57:43;12.57;;;10.97;;
3036;SDS011;1528;52.550;13.408;2022-10-03T10:01:01;12.30;;;10.97;;
3036;SDS011;1528;52.550;13.408;2022-10-03T10:07:19;11.57;;;10.07;;
3036;SDS011;1528;52.550;13.408;2022-10-03T10:10:47;11.70;;;10.60;;
3036;SDS011;1528;52.550;13.408;2022-10-03T10:17:14;13.70;;;11.10;;
3036;SDS011;1528;52.550;13.408;2022-10-03T10:20:33;10.03;;;9.03;;
3036;SDS011;1528;52.550;13.408;2022-10-03T10:23:40;9.57;;;8.87;;
3036;SDS011;1528;52.550;13.408;2022-10-03T10:26:42;11.00;;;10.03;;
3036;SDS011;1528;52.550;13.408;2022-10-03T10:30:03;9.77;;;8.87;;
3036;SDS011;1528;52.550;13.408;2022-10-03T10:36:49;12.73;;;11.83;;
3036;SDS011;1528;52.550;13.408;2022-10-03T10:39:55;13.53;;;12.33;;
3036;SDS011;1528;52.550;13.408;2022-10-03T11:06:42;12.00;;;11.07;;
3036;SDS011;1528;52.550;13.408;2022-10-03T11:23:39;10.70;;;9.90;;
3036;SDS011;1528;52.550;13.408;2022-10-03T11:27:15;10.10;;;9.30;;
3036;SDS011;1528;52.550;13.408;2022-10-03T11:30:37;11.73;;;11.03;;
3036;SDS011;1528;52.550;13.408;2022-10-03T11:37:05;12.13;;;11.10;;
3036;SDS011;1528;52.550;13.408;2022-10-03T11:40:10;10.47;;;9.87;;
3036;SDS011;1528;52.550;13.408;2022-10-03T11:46:30;12.30;;;11.50;;
3036;SDS011;1528;52.550;13.408;2022-10-03T11:49:35;11.37;;;10.67;;
3036;SDS011;1528;52.550;13.408;2022-10-03T11:52:42;10.70;;;9.80;;
3036;SDS011;1528;52.550;13.408;2022-10-03T11:55:40;10.33;;;9.70;;
3036;SDS011;1528;52.550;13.408;2022-10-03T11:58:31;10.83;;;9.93;;
3036;SDS011;1528;52.550;13.408;2022-10-03T12:01:26;10.87;;;10.00;;
3036;SDS011;1528;52.550;13.408;2022-10-03T12:04:22;9.83;;;9.17;;
3036;SDS011;1528;52.550;13.408;2022-10-03T12:07:16;11.50;;;10.60;;
3036;SDS011;1528;52.550;13.408;2022-10-03T12:13:36;10.87;;;9.87;;
3036;SDS011;1528;52.550;13.408;2022-10-03T12:16:27;10.47;;;9.90;;
3036;SDS011;1528;52.550;13.408;2022-10-03T12:19:21;11.47;;;10.67;;
3036;SDS011;1528;52.550;13.408;2022-10-03T12:22:18;9.97;;;9.20;;
3036;SDS011;1528;52.550;13.408;2022-10-03T12:25:17;9.47;;;8.77;;
3036;SDS011;1528;52.550;13.408;2022-10-03T12:28:08;12.43;;;11.47;;
3036;SDS011;1528;52.550;13.408;2022-10-03T12:30:59;13.40;;;10.93;;
3036;SDS011;1528;52.550;13.408;2022-10-03T12:33:50;10.87;;;9.97;;
3036;SDS011;1528;52.550;13.408;2022-10-03T12:36:42;11.10;;;10.33;;
3036;SDS011;1528;52.550;13.408;2022-10-03T12:39:37;10.53;;;9.93;;
3036;SDS011;1528;52.550;13.408;2022-10-03T12:42:32;11.80;;;11.10;;
3036;SDS011;1528;52.550;13.408;2022-10-03T12:45:24;10.83;;;10.03;;
3036;SDS011;1528;52.550;13.408;2022-10-03T12:48:26;12.13;;;11.40;;
3036;SDS011;1528;52.550;13.408;2022-10-03T12:51:32;10.33;;;9.63;;
3036;SDS011;1528;52.550;13.408;2022-10-03T12:54:41;11.73;;;10.90;;
3036;SDS011;1528;52.550;13.408;2022-10-03T12:57:44;10.73;;;10.23;;
3036;SDS011;1528;52.550;13.408;2022-10-03T13:00:46;11.67;;;10.87;;
3036;SDS011;1528;52.550;13.408;2022-10-03T13:03:42;10.50;;;9.60;;
3036;SDS011;1528;52.550;13.408;2022-10-03T13:06:35;12.83;;;11.87;;
3036;SDS011;1528;52.550;13.408;2022-10-03T13:09:44;10.50;;;9.80;;
3036;SDS011;1528;52.550;13.408;2022-10-03T13:12:48;10.60;;;10.10;;
3036;SDS011;1528;52.550;13.408;2022-10-03T13:15:50;9.93;;;9.17;;
3036;SDS011;1528;52.550;13.408;2022-10-03T13:18:52;10.90;;;10.20;;
3036;SDS011;1528;52.550;13.408;2022-10-03T13:21:50;9.23;;;8.73;;
3036;SDS011;1528;52.550;13.408;2022-10-03T13:24:47;10.83;;;10.00;;
3036;SDS011;1528;52.550;13.408;2022-10-03T13:27:41;10.60;;;9.73;;
3036;SDS011;1528;52.550;13.408;2022-10-03T13:30:31;8.83;;;8.30;;
3036;SDS011;1528;52.550;13.408;2022-10-03T13:33:27;8.33;;;7.93;;
3036;SDS011;1528;52.550;13.408;2022-10-03T13:36:17;10.20;;;9.60;;
3036;SDS011;1528;52.550;13.408;2022-10-03T13:39:10;9.20;;;8.77;;
3036;SDS011;1528;52.550;13.408;2022-10-03T13:42:05;8.33;;;7.53;;
3036;SDS011;1528;52.550;13.408;2022-10-03T13:44:59;8.43;;;7.70;;
3036;SDS011;1528;52.550;13.408;2022-10-03T13:47:47;9.03;;;8.23;;
3036;SDS011;1528;52.550;13.408;2022-10-03T13:50:39;8.07;;;7.30;;
3036;SDS011;1528;52.550;13.408;2022-10-03T13:56:44;8.87;;;8.30;;
3036;SDS011;1528;52.550;13.408;2022-10-03T13:59:37;8.20;;;7.60;;
3036;SDS011;1528;52.550;13.408;2022-10-03T14:02:37;9.20;;;8.50;;
3036;SDS011;1528;52.550;13.408;2022-10-03T14:05:35;9.43;;;8.57;;
3036;SDS011;1528;52.550;13.408;2022-10-03T14:11:48;7.27;;;6.67;;
3036;SDS011;1528;52.550;13.408;2022-10-03T14:14:50;8.03;;;7.40;;
3036;SDS011;1528;52.550;13.408;2022-10-03T14:17:49;8.20;;;7.40;;
3036;SDS011;1528;52.550;13.408;2022-10-03T14:24:05;10.23;;;7.17;;
3036;SDS011;1528;52.550;13.408;2022-10-03T14:27:00;12.00;;;8.63;;
3036;SDS011;1528;52.550;13.408;2022-10-03T14:29:57;8.40;;;7.83;;
3036;SDS011;1528;52.550;13.408;2022-10-03T14:32:55;10.30;;;7.40;;
3036;SDS011;1528;52.550;13.408;2022-10-03T14:35:52;9.23;;;8.53;;
3036;SDS011;1528;52.550;13.408;2022-10-03T14:38:50;10.13;;;9.13;;
3036;SDS011;1528;52.550;13.408;2022-10-03T14:41:46;10.37;;;8.50;;
3036;SDS011;1528;52.550;13.408;2022-10-03T14:44:46;10.17;;;9.60;;
3036;SDS011;1528;52.550;13.408;2022-10-03T14:47:39;11.87;;;10.87;;
3036;SDS011;1528;52.550;13.408;2022-10-03T14:50:28;9.33;;;8.60;;
3036;SDS011;1528;52.550;13.408;2022-10-03T14:53:15;8.50;;;7.60;;
3036;SDS011;1528;52.550;13.408;2022-10-03T14:56:04;10.30;;;9.20;;
3036;SDS011;1528;52.550;13.408;2022-10-03T14:58:52;10.30;;;9.40;;
3036;SDS011;1528;52.550;13.408;2022-10-03T15:01:45;11.17;;;10.37;;
3036;SDS011;1528;52.550;13.408;2022-10-03T15:04:33;11.67;;;10.50;;
3036;SDS011;1528;52.550;13.408;2022-10-03T15:07:26;13.97;;;12.93;;
3036;SDS011;1528;52.550;13.408;2022-10-03T15:10:19;9.87;;;8.90;;
3036;SDS011;1528;52.550;13.408;2022-10-03T15:13:08;10.67;;;9.23;;
3036;SDS011;1528;52.550;13.408;2022-10-03T15:15:54;10.40;;;9.53;;
3036;SDS011;1528;52.550;13.408;2022-10-03T15:18:40;12.20;;;10.33;;
3036;SDS011;1528;52.550;13.408;2022-10-03T15:21:36;9.70;;;8.83;;
3036;SDS011;1528;52.550;13.408;2022-10-03T15:24:30;9.77;;;8.97;;
3036;SDS011;1528;52.550;13.408;2022-10-03T15:27:19;7.87;;;7.27;;
3036;SDS011;1528;52.550;13.408;2022-10-03T15:30:07;10.13;;;9.27;;
3036;SDS011;1528;52.550;13.408;2022-10-03T15:33:05;8.50;;;6.70;;
3036;SDS011;1528;52.550;13.408;2022-10-03T15:36:00;7.23;;;6.63;;
3036;SDS011;1528;52.550;13.408;2022-10-03T15:38:54;8.60;;;7.70;;
3036;SDS011;1528;52.550;13.408;2022-10-03T15:41:49;8.40;;;7.63;;
3036;SDS011;1528;52.550;13.408;2022-10-03T15:44:38;8.77;;;7.87;;
3036;SDS011;1528;52.550;13.408;2022-10-03T15:47:34;9.07;;;8.13;;
3036;SDS011;1528;52.550;13.408;2022-10-03T15:50:23;8.90;;;6.43;;
3036;SDS011;1528;52.550;13.408;2022-10-03T15:53:12;7.83;;;7.07;;
3036;SDS011;1528;52.550;13.408;2022-10-03T15:56:06;7.97;;;7.23;;
3036;SDS011;1528;52.550;13.408;2022-10-03T15:58:57;7.03;;;6.37;;
3036;SDS011;1528;52.550;13.408;2022-10-03T16:01:48;9.00;;;7.30;;
3036;SDS011;1528;52.550;13.408;2022-10-03T16:04:38;10.43;;;7.90;;
3036;SDS011;1528;52.550;13.408;2022-10-03T16:07:28;7.80;;;6.30;;
3036;SDS011;1528;52.550;13.408;2022-10-03T16:10:23;7.43;;;6.83;;
3036;SDS011;1528;52.550;13.408;2022-10-03T16:13:20;9.47;;;6.70;;
3036;SDS011;1528;52.550;13.408;2022-10-03T16:16:16;8.23;;;7.43;;
3036;SDS011;1528;52.550;13.408;2022-10-03T16:19:18;7.00;;;6.40;;
3036;SDS011;1528;52.550;13.408;2022-10-03T16:22:27;9.40;;;6.43;;
3036;SDS011;1528;52.550;13.408;2022-10-03T16:25:20;6.37;;;5.80;;
3036;SDS011;1528;52.550;13.408;2022-10-03T16:28:11;6.47;;;5.87;;
3036;SDS011;1528;52.550;13.408;2022-10-03T16:31:00;7.40;;;6.40;;
3036;SDS011;1528;52.550;13.408;2022-10-03T16:33:52;9.33;;;8.43;;
3036;SDS011;1528;52.550;13.408;2022-10-03T16:36:42;9.40;;;7.77;;
3036;SDS011;1528;52.550;13.408;2022-10-03T16:39:33;12.87;;;10.47;;
3036;SDS011;1528;52.550;13.408;2022-10-03T16:42:21;7.20;;;6.50;;
3036;SDS011;1528;52.550;13.408;2022-10-03T16:45:16;8.63;;;7.10;;
3036;SDS011;1528;52.550;13.408;2022-10-03T16:48:11;8.47;;;7.60;;
3036;SDS011;1528;52.550;13.408;2022-10-03T16:51:22;8.23;;;7.40;;
3036;SDS011;1528;52.550;13.408;2022-10-03T16:54:17;6.73;;;5.93;;
3036;SDS011;1528;52.550;13.408;2022-10-03T16:57:10;9.83;;;7.90;;
3036;SDS011;1528;52.550;13.408;2022-10-03T16:59:59;8.70;;;7.93;;
3036;SDS011;1528;52.550;13.408;2022-10-03T17:02:49;9.57;;;8.60;;
3036;SDS011;1528;52.550;13.408;2022-10-03T17:05:40;9.00;;;8.10;;
3036;SDS011;1528;52.550;13.408;2022-10-03T17:08:32;9.03;;;8.20;;
3036;SDS011;1528;52.550;13.408;2022-10-03T17:11:25;10.50;;;7.77;;
3036;SDS011;1528;52.550;13.408;2022-10-03T17:14:14;8.63;;;7.83;;
3036;SDS011;1528;52.550;13.408;2022-10-03T17:17:06;9.80;;;8.73;;
3036;SDS011;1528;52.550;13.408;2022-10-03T17:20:02;9.70;;;8.83;;
3036;SDS011;1528;52.550;13.408;2022-10-03T17:22:53;9.30;;;8.40;;
3036;SDS011;1528;52.550;13.408;2022-10-03T17:25:48;8.53;;;7.73;;
3036;SDS011;1528;52.550;13.408;2022-10-03T17:28:53;8.50;;;7.90;;
3036;SDS011;1528;52.550;13.408;2022-10-03T17:31:43;8.10;;;7.50;;
3036;SDS011;1528;52.550;13.408;2022-10-03T17:34:32;7.93;;;7.33;;
3036;SDS011;1528;52.550;13.408;2022-10-03T17:43:56;7.90;;;7.30;;
3036;SDS011;1528;52.550;13.408;2022-10-03T17:47:01;9.13;;;8.53;;
3036;SDS011;1528;52.550;13.408;2022-10-03T17:49:56;7.90;;;7.20;;
3036;SDS011;1528;52.550;13.408;2022-10-03T18:00:14;7.57;;;6.97;;
3036;SDS011;1528;52.550;13.408;2022-10-03T18:03:03;7.07;;;6.40;;
3036;SDS011;1528;52.550;13.408;2022-10-03T18:05:56;7.63;;;7.23;;
3036;SDS011;1528;52.550;13.408;2022-10-03T18:08:45;7.73;;;7.03;;
3036;SDS011;1528;52.550;13.408;2022-10-03T18:11:36;8.97;;;8.27;;
3036;SDS011;1528;52.550;13.408;2022-10-03T18:14:28;12.97;;;11.60;;
3036;SDS011;1528;52.550;13.408;2022-10-03T18:17:23;7.17;;;6.57;;
3036;SDS011;1528;52.550;13.408;2022-10-03T18:20:18;7.70;;;6.57;;
3036;SDS011;1528;52.550;13.408;2022-10-03T18:23:20;7.77;;;6.47;;
3036;SDS011;1528;52.550;13.408;2022-10-03T18:26:16;6.70;;;6.00;;
3036;SDS011;1528;52.550;13.408;2022-10-03T18:29:18;7.20;;;6.60;;
3036;SDS011;1528;52.550;13.408;2022-10-03T18:32:11;8.00;;;7.30;;
3036;SDS011;1528;52.550;13.408;2022-10-03T18:35:05;6.97;;;6.40;;
3036;SDS011;1528;52.550;13.408;2022-10-03T18:38:06;9.10;;;7.93;;
3036;SDS011;1528;52.550;13.408;2022-10-03T18:40:56;6.80;;;6.13;;
3036;SDS011;1528;52.550;13.408;2022-10-03T18:43:44;7.07;;;6.67;;
3036;SDS011;1528;52.550;13.408;2022-10-03T18:46:37;7.50;;;6.23;;
3036;SDS011;1528;52.550;13.408;2022-10-03T18:49:25;7.77;;;7.07;;
3036;SDS011;1528;52.550;13.408;2022-10-03T18:52:18;8.87;;;8.03;;
3036;SDS011;1528;52.550;13.408;2022-10-03T18:55:12;8.80;;;8.10;;
3036;SDS011;1528;52.550;13.408;2022-10-03T18:58:01;8.10;;;7.30;;
3036;SDS011;1528;52.550;13.408;2022-10-03T19:01:01;8.53;;;7.73;;
3036;SDS011;1528;52.550;13.408;2022-10-03T19:03:50;9.07;;;8.30;;
3036;SDS011;1528;52.550;13.408;2022-10-03T19:06:42;8.77;;;8.00;;
3036;SDS011;1528;52.550;13.408;2022-10-03T19:09:33;8.13;;;7.53;;
3036;SDS011;1528;52.550;13.408;2022-10-03T19:12:26;8.27;;;7.57;;
3036;SDS011;1528;52.550;13.408;2022-10-03T19:15:18;8.53;;;7.87;;
3036;SDS011;1528;52.550;13.408;2022-10-03T19:18:16;10.70;;;7.43;;
3036;SDS011;1528;52.550;13.408;2022-10-03T19:21:10;6.20;;;5.60;;
3036;SDS011;1528;52.550;13.408;2022-10-03T19:24:03;6.40;;;5.80;;
3036;SDS011;1528;52.550;13.408;2022-10-03T19:26:56;7.17;;;6.10;;
3036;SDS011;1528;52.550;13.408;2022-10-03T19:29:46;6.30;;;5.80;;
3036;SDS011;1528;52.550;13.408;2022-10-03T19:32:43;6.90;;;6.27;;
3036;SDS011;1528;52.550;13.408;2022-10-03T19:35:32;6.97;;;6.57;;
3036;SDS011;1528;52.550;13.408;2022-10-03T19:38:26;8.47;;;5.77;;
3036;SDS011;1528;52.550;13.408;2022-10-03T19:41:19;6.63;;;6.13;;
3036;SDS011;1528;52.550;13.408;2022-10-03T19:44:14;6.50;;;6.03;;
3036;SDS011;1528;52.550;13.408;2022-10-03T19:47:05;7.17;;;5.77;;
3036;SDS011;1528;52.550;13.408;2022-10-03T19:50:04;6.17;;;5.63;;
3036;SDS011;1528;52.550;13.408;2022-10-03T19:52:57;9.00;;;6.30;;
3036;SDS011;1528;52.550;13.408;2022-10-03T19:55:43;6.90;;;5.63;;
3036;SDS011;1528;52.550;13.408;2022-10-03T19:58:31;6.47;;;5.97;;
3036;SDS011;1528;52.550;13.408;2022-10-03T20:01:19;5.83;;;5.00;;
3036;SDS011;1528;52.550;13.408;2022-10-03T20:04:06;7.17;;;6.20;;
3036;SDS011;1528;52.550;13.408;2022-10-03T20:06:53;6.90;;;6.20;;
3036;SDS011;1528;52.550;13.408;2022-10-03T20:09:40;6.90;;;6.20;;
3036;SDS011;1528;52.550;13.408;2022-10-03T20:12:38;8.83;;;5.93;;
3036;SDS011;1528;52.550;13.408;2022-10-03T20:15:34;7.97;;;7.23;;
3036;SDS011;1528;52.550;13.408;2022-10-03T20:18:38;7.50;;;6.10;;
3036;SDS011;1528;52.550;13.408;2022-10-03T20:24:07;7.60;;;5.60;;
3036;SDS011;1528;52.550;13.408;2022-10-03T20:26:58;6.73;;;6.03;;
3036;SDS011;1528;52.550;13.408;2022-10-03T20:30:00;10.23;;;7.27;;
3036;SDS011;1528;52.550;13.408;2022-10-03T20:32:50;6.83;;;6.00;;
3036;SDS011;1528;52.550;13.408;2022-10-03T20:35:49;7.60;;;6.90;;
3036;SDS011;1528;52.550;13.408;2022-10-03T20:38:46;6.90;;;5.73;;
3036;SDS011;1528;52.550;13.408;2022-10-03T20:41:49;7.67;;;6.87;;
3036;SDS011;1528;52.550;13.408;2022-10-03T20:44:50;5.83;;;5.27;;
3036;SDS011;1528;52.550;13.408;2022-10-03T20:47:46;6.60;;;6.00;;
3036;SDS011;1528;52.550;13.408;2022-10-03T20:50:44;8.50;;;6.37;;
3036;SDS011;1528;52.550;13.408;2022-10-03T20:53:31;6.70;;;6.10;;
3036;SDS011;1528;52.550;13.408;2022-10-03T20:56:17;7.03;;;5.67;;
3036;SDS011;1528;52.550;13.408;2022-10-03T20:59:08;6.43;;;5.93;;
3036;SDS011;1528;52.550;13.408;2022-10-03T21:01:56;6.73;;;6.23;;